12°C Temp
4°C Dewpoint
58% Humidity
Temperature
13 KM/H
8 MPH
7 KTS
320°
North West

Wind Speed
Partly Cloudy
Conditions
Pressure 1026.42 (hPa) - 30.31 (in)
Visibility 10.0 (mi) - 16.1 (km)

Current Conditions
KSJC
Location 9(km)
Metar :KSJC 080153Z 32007KT 10SM FEW065 FEW110 FEW160 12/04 A3031 RMK AO2 SLP263 T01220039
Wed 8th February 02:53 am

Airport
  Metar Aviation API Data Provided by https://www.checkwx.com/ PHP scripts by weather34.com ©2023